Time;durP1;ratioP1;P1;durP2;ratioP2;P2;SDS_P1;SDS_P2;PMS_P1;PMS_P2;Temp;Humidity;BMP_temperature;BMP_pressure;BME280_temperature;BME280_humidity;BME280_pressure;Samples;Min_cycle;Max_cycle;Signal;HPM_P1;HPM_P2
2022/09/22 00:01:01;;;;;;;12.00;10.50;;;;;;;11.25;94.50;99524.19;5044459;28;20049;-66
2022/09/22 00:03:31;;;;;;;12.10;11.00;;;;;;;11.22;94.46;99508.72;5042909;28;20040;-66
2022/09/22 00:05:59;;;;;;;11.90;10.80;;;;;;;11.17;93.97;99529.59;5044581;28;20029;-65
2022/09/22 00:08:26;;;;;;;13.55;12.25;;;;;;;11.06;94.72;99536.78;5043943;28;20033;-66
2022/09/22 00:11:07;;;;;;;10.77;9.77;;;;;;;11.09;95.10;99528.94;5044074;28;20048;-66
2022/09/22 00:13:35;;;;;;;12.70;11.48;;;;;;;11.21;94.44;99544.13;5044279;28;20045;-66
2022/09/22 00:16:01;;;;;;;12.60;11.30;;;;;;;11.12;94.42;99552.16;5043990;28;20336;-66
2022/09/22 00:18:28;;;;;;;13.43;12.13;;;;;;;11.15;95.16;99544.31;5043427;28;20032;-66
2022/09/22 00:20:54;;;;;;;12.80;11.65;;;;;;;11.07;95.07;99551.44;5042975;28;20293;-66
2022/09/22 00:23:23;;;;;;;12.82;11.23;;;;;;;10.94;95.07;99531.91;5044007;28;20399;-66
2022/09/22 00:25:49;;;;;;;11.68;10.57;;;;;;;11.07;95.44;99545.41;5043930;28;20263;-66
2022/09/22 00:28:15;;;;;;;13.20;11.50;;;;;;;11.07;95.87;99541.06;5044317;28;20037;-66
2022/09/22 00:30:41;;;;;;;11.70;10.50;;;;;;;11.08;95.52;99552.28;5043488;28;20037;-66
2022/09/22 00:33:09;;;;;;;11.85;10.63;;;;;;;10.94;95.42;99550.06;5043725;28;20053;-67
2022/09/22 00:35:37;;;;;;;11.95;10.23;;;;;;;10.84;96.46;99555.44;5044136;28;20033;-67
2022/09/22 00:38:04;;;;;;;11.20;10.10;;;;;;;10.96;95.77;99531.00;5043552;28;20089;-67
2022/09/22 00:40:31;;;;;;;10.60;9.60;;;;;;;11.15;95.23;99554.69;5043625;28;20037;-67
2022/09/22 00:43:21;;;;;;;10.38;9.38;;;;;;;11.09;95.13;99544.47;5043727;28;20090;-67
2022/09/22 00:45:58;;;;;;;9.07;8.18;;;;;;;11.18;95.32;99554.59;5023908;28;20348;-67
2022/09/22 00:48:26;;;;;;;8.70;7.90;;;;;;;11.24;95.04;99551.00;5040772;28;20030;-66
2022/09/22 00:50:53;;;;;;;8.73;7.93;;;;;;;11.14;95.13;99541.75;5043495;28;20037;-66
2022/09/22 00:53:21;;;;;;;9.55;8.65;;;;;;;11.00;94.75;99526.56;5042546;28;20032;-66
2022/09/22 00:55:59;;;;;;;9.57;7.53;;;;;;;11.15;95.14;99544.31;5043648;28;20025;-65
2022/09/22 00:58:31;;;;;;;8.70;7.78;;;;;;;11.13;95.26;99547.81;5042914;28;20041;-65
2022/09/22 01:00:57;;;;;;;8.27;7.55;;;;;;;11.14;94.98;99542.59;5042238;28;20237;-65
2022/09/22 01:03:25;;;;;;;8.98;8.10;;;;;;;11.15;94.61;99540.88;5043110;28;20030;-65
2022/09/22 01:05:54;;;;;;;7.32;6.63;;;;;;;11.28;94.92;99539.66;5043293;28;20099;-66
2022/09/22 01:08:21;;;;;;;7.82;7.03;;;;;;;11.28;94.35;99544.84;5043324;28;20071;-66
2022/09/22 01:10:51;;;;;;;11.25;8.13;;;;;;;11.21;95.10;99551.06;5043062;28;20037;-66
2022/09/22 01:13:23;;;;;;;7.70;6.68;;;;;;;11.13;95.20;99540.06;5042921;28;20321;-66
2022/09/22 01:16:00;;;;;;;8.35;7.55;;;;;;;11.12;95.08;99543.56;5023635;28;20038;-65
2022/09/22 01:18:31;;;;;;;7.68;6.88;;;;;;;11.24;94.63;99545.81;5039922;28;20109;-65
2022/09/22 01:21:09;;;;;;;7.82;7.05;;;;;;;11.25;94.63;99544.94;5042836;28;20039;-66
2022/09/22 01:23:53;;;;;;;7.82;7.03;;;;;;;11.13;94.66;99540.94;5043020;28;20052;-65
2022/09/22 01:26:57;;;;;;;7.68;6.97;;;;;;;11.30;93.99;99544.78;5042571;28;20043;-65
2022/09/22 01:29:37;;;;;;;7.70;6.97;;;;;;;11.11;94.52;99526.31;4996863;28;20045;-65
2022/09/22 01:32:15;;;;;;;8.55;6.88;;;;;;;10.98;94.69;99521.44;5042973;28;20029;-66
2022/09/22 01:34:59;;;;;;;7.88;6.53;;;;;;;11.03;95.38;99536.84;5042588;28;20055;-65
2022/09/22 01:37:36;;;;;;;7.40;6.55;;;;;;;10.90;95.06;99502.63;5042937;28;20040;-66
2022/09/22 01:40:16;;;;;;;7.85;6.88;;;;;;;10.97;95.04;99517.13;5022588;28;20038;-66
2022/09/22 01:42:48;;;;;;;9.80;8.07;;;;;;;11.20;95.28;99521.72;5041882;28;20120;-67
2022/09/22 01:45:16;;;;;;;;;;;;;;;11.15;95.19;99531.34;5043838;28;20087;-67
2022/09/22 01:47:52;;;;;;;7.55;6.85;;;;;;;11.07;94.67;99514.31;5042279;28;19950;-66
2022/09/22 01:50:30;;;;;;;7.68;6.93;;;;;;;11.28;95.36;99534.47;5042905;28;20036;-66
2022/09/22 01:53:00;;;;;;;11.07;7.72;;;;;;;11.28;95.00;99526.69;5042616;28;20026;-66
2022/09/22 01:55:31;;;;;;;7.72;6.93;;;;;;;11.30;94.26;99542.19;5042453;28;20056;-66
2022/09/22 01:58:02;;;;;;;7.53;6.80;;;;;;;11.38;93.70;99530.72;5042996;28;20068;-66
2022/09/22 02:00:28;;;;;;;11.50;7.53;;;;;;;11.27;94.43;99527.56;5042223;28;20045;-67
2022/09/22 02:03:09;;;;;;;8.35;7.55;;;;;;;11.13;94.90;99534.88;5042214;28;20063;-67
2022/09/22 02:05:47;;;;;;;8.27;7.27;;;;;;;11.01;94.76;99536.03;5042633;28;20029;-67
2022/09/22 02:08:20;;;;;;;8.07;7.38;;;;;;;10.85;95.68;99526.06;5042591;28;20029;-67
2022/09/22 02:10:47;;;;;;;8.07;7.28;;;;;;;11.11;95.14;99542.69;5042190;28;20025;-67
2022/09/22 02:13:14;;;;;;;7.80;7.05;;;;;;;11.05;95.36;99532.50;5042444;28;20045;-67
2022/09/22 02:18:48;;;;;;;7.72;6.95;;;;;;;11.18;95.18;99554.59;5042182;28;20096;-67
2022/09/22 02:21:15;;;;;;;8.88;7.97;;;;;;;11.20;94.56;99557.16;5042233;28;20093;-67
2022/09/22 02:23:43;;;;;;;8.65;7.75;;;;;;;11.29;94.35;99545.72;5042401;28;20368;-67
2022/09/22 02:26:11;;;;;;;9.65;8.65;;;;;;;11.19;94.71;99551.13;5042599;28;20036;-66
2022/09/22 02:28:40;;;;;;;7.53;6.82;;;;;;;11.35;94.38;99550.72;5042284;28;20029;-67
2022/09/22 02:31:08;;;;;;;10.38;7.55;;;;;;;11.20;94.30;99526.91;5042266;28;20321;-65
2022/09/22 02:33:37;;;;;;;8.75;7.95;;;;;;;11.19;94.31;99534.72;5042147;28;20033;-66
2022/09/22 02:36:24;;;;;;;9.02;7.97;;;;;;;11.15;94.26;99546.91;5041185;28;20026;-66
2022/09/22 02:39:39;;;;;;;8.98;8.07;;;;;;;11.13;94.86;99547.81;5041957;28;20080;-66
2022/09/22 02:42:19;;;;;;;9.43;8.38;;;;;;;11.11;95.05;99547.88;4968966;28;20244;-66
2022/09/22 02:44:50;;;;;;;9.88;8.63;;;;;;;11.00;95.34;99553.34;5044944;28;20037;-66
2022/09/22 02:47:27;;;;;;;10.40;9.40;;;;;;;10.95;95.94;99534.47;5045865;28;20033;-66
2022/09/22 02:49:54;;;;;;;9.55;8.40;;;;;;;10.97;95.38;99537.00;5046091;28;20097;-65
2022/09/22 02:52:23;;;;;;;10.05;9.10;;;;;;;11.04;95.63;99554.09;5045921;28;20021;-66
2022/09/22 02:54:50;;;;;;;9.57;8.60;;;;;;;11.01;96.39;99555.03;5045408;28;20056;-66
2022/09/22 02:57:15;;;;;;;10.57;9.48;;;;;;;11.18;95.20;99556.34;5044698;28;20240;-67
2022/09/22 02:59:41;;;;;;;11.55;9.27;;;;;;;10.92;95.99;99546.66;5044553;28;20021;-67
2022/09/22 03:02:06;;;;;;;11.20;9.73;;;;;;;10.94;96.01;99560.41;5038913;28;20068;-67
2022/09/22 03:04:32;;;;;;;11.32;9.63;;;;;;;10.97;95.94;99557.75;5026366;28;20199;-68
2022/09/22 03:06:57;;;;;;;11.73;10.45;;;;;;;10.93;95.82;99544.03;5045648;28;20033;-68
2022/09/22 03:09:23;;;;;;;11.90;10.70;;;;;;;11.03;95.80;99560.16;5042867;28;20075;-68
2022/09/22 03:11:49;;;;;;;12.05;10.82;;;;;;;11.06;95.26;99557.53;5045614;28;20029;-68
2022/09/22 03:14:14;;;;;;;11.68;10.35;;;;;;;11.10;95.27;99560.88;5044200;28;20106;-68
2022/09/22 03:16:40;;;;;;;12.23;10.43;;;;;;;11.09;95.23;99566.94;5043934;28;20049;-67
2022/09/22 03:19:05;;;;;;;13.32;11.10;;;;;;;11.14;95.30;99571.13;5045427;28;20033;-67
2022/09/22 03:21:31;;;;;;;12.50;11.05;;;;;;;11.15;94.89;99559.03;5044980;28;20051;-67
2022/09/22 03:23:56;;;;;;;11.68;10.57;;;;;;;11.12;95.66;99562.53;5045082;28;20035;-68
2022/09/22 03:26:22;;;;;;;12.80;11.52;;;;;;;11.04;95.25;99560.16;5045047;28;20049;-68
2022/09/22 03:28:47;;;;;;;12.07;10.77;;;;;;;11.16;95.53;99552.94;5044693;28;20037;-68
2022/09/22 03:31:13;;;;;;;12.95;11.63;;;;;;;10.97;95.38;99565.50;5044910;28;20052;-67
2022/09/22 03:33:39;;;;;;;13.05;11.70;;;;;;;10.99;95.77;99574.13;5044964;28;20032;-67
2022/09/22 03:36:05;;;;;;;12.90;11.63;;;;;;;11.08;95.26;99560.91;5044927;28;20045;-66
2022/09/22 03:38:31;;;;;;;12.55;11.25;;;;;;;10.90;95.90;99575.16;5044204;28;20029;-67
2022/09/22 03:40:57;;;;;;;15.27;12.43;;;;;;;11.05;95.36;99572.19;5045023;28;20033;-67
2022/09/22 03:43:24;;;;;;;13.73;11.32;;;;;;;10.91;95.59;99573.44;5045086;28;20128;-67
2022/09/22 03:45:57;;;;;;;13.18;11.88;;;;;;;10.82;95.85;99585.72;5043577;28;20303;-67
2022/09/22 03:48:24;;;;;;;13.68;12.27;;;;;;;10.85;95.92;99577.03;5044657;28;20032;-67
2022/09/22 03:50:50;;;;;;;13.32;11.98;;;;;;;10.86;96.04;99579.59;5044478;28;20025;-67
2022/09/22 03:53:15;;;;;;;13.05;11.68;;;;;;;10.93;96.18;99577.72;5045507;28;20132;-67
2022/09/22 03:55:41;;;;;;;15.10;13.30;;;;;;;10.99;95.96;99580.13;5063171;28;20021;-67
2022/09/22 03:58:06;;;;;;;13.38;11.82;;;;;;;11.12;95.73;99585.03;5036591;28;20057;-67
2022/09/22 04:00:32;;;;;;;16.83;12.85;;;;;;;11.09;94.73;99582.50;5041073;28;20045;-67
2022/09/22 04:02:58;;;;;;;14.02;12.63;;;;;;;11.15;94.85;99577.16;5044257;28;20030;-68
2022/09/22 04:05:24;;;;;;;15.10;13.50;;;;;;;11.22;95.50;99581.31;5056365;28;20040;-67
2022/09/22 04:07:50;;;;;;;14.48;12.98;;;;;;;11.23;94.48;99583.00;5026832;28;20061;-67
2022/09/22 04:10:16;;;;;;;13.93;12.52;;;;;;;10.97;95.36;99578.47;5044260;28;20344;-67
2022/09/22 04:12:42;;;;;;;17.58;13.95;;;;;;;11.05;95.61;99577.38;5044056;28;20053;-67
2022/09/22 04:15:08;;;;;;;15.38;13.13;;;;;;;11.01;95.38;99583.53;5043736;28;20040;-67
2022/09/22 04:17:35;;;;;;;15.38;13.43;;;;;;;11.07;95.26;99582.53;5043695;28;20026;-66
2022/09/22 04:20:03;;;;;;;16.08;14.48;;;;;;;10.83;96.27;99584.84;5044124;28;20060;-66
2022/09/22 04:22:29;;;;;;;14.10;12.60;;;;;;;11.02;95.48;99581.81;5043872;28;20025;-66
2022/09/22 04:24:56;;;;;;;17.73;14.15;;;;;;;11.16;95.17;99577.13;5043726;28;20232;-66
2022/09/22 04:27:22;;;;;;;14.57;12.77;;;;;;;11.08;94.69;99588.59;5041981;28;20045;-68
2022/09/22 04:29:47;;;;;;;14.52;13.13;;;;;;;11.20;95.06;99578.75;5034031;28;20313;-67
2022/09/22 04:32:13;;;;;;;15.88;13.43;;;;;;;11.12;94.90;99572.06;5042748;28;20036;-67
2022/09/22 04:34:39;;;;;;;16.98;14.27;;;;;;;11.19;94.30;99568.44;5043497;28;20106;-66
2022/09/22 04:37:04;;;;;;;16.35;12.88;;;;;;;11.27;94.25;99558.69;5059244;28;20107;-66
2022/09/22 04:39:30;;;;;;;15.55;13.95;;;;;;;11.18;94.21;99571.91;5039693;28;20029;-66
2022/09/22 04:41:56;;;;;;;15.45;13.85;;;;;;;11.12;94.69;99572.06;5043746;28;20323;-67
2022/09/22 04:44:21;;;;;;;15.68;14.07;;;;;;;10.98;95.02;99573.25;5043833;28;20089;-66
2022/09/22 04:46:48;;;;;;;16.90;15.10;;;;;;;10.99;95.10;99574.97;5037252;28;20309;-67
2022/09/22 04:49:13;;;;;;;15.10;13.50;;;;;;;11.10;95.25;99582.47;5035060;28;20021;-67
2022/09/22 04:51:39;;;;;;;14.48;12.98;;;;;;;10.82;95.29;99585.72;5040458;28;20087;-67
2022/09/22 04:54:05;;;;;;;14.95;13.35;;;;;;;10.85;95.22;99592.59;5043030;28;20089;-67
2022/09/22 04:56:30;;;;;;;14.82;13.32;;;;;;;11.00;95.21;99588.75;5043434;28;20232;-68
2022/09/22 04:58:56;;;;;;;14.40;12.95;;;;;;;10.99;95.11;99585.31;5041824;28;20109;-69
2022/09/22 05:01:22;;;;;;;15.65;13.90;;;;;;;10.91;95.31;99586.41;5033116;28;20076;-69
2022/09/22 05:03:47;;;;;;;17.63;13.52;;;;;;;10.89;95.38;99583.84;5041566;28;20063;-69
2022/09/22 05:06:13;;;;;;;15.50;13.75;;;;;;;10.87;95.15;99581.31;5036169;28;20040;-70
2022/09/22 05:08:38;;;;;;;14.75;13.23;;;;;;;11.02;95.19;99581.81;5031111;28;20343;-69
2022/09/22 05:11:07;;;;;;;16.13;14.05;;;;;;;10.99;95.09;99576.72;5043165;28;20268;-69
2022/09/22 05:13:32;;;;;;;14.65;12.85;;;;;;;10.99;94.40;99581.91;5043272;28;20155;-69
2022/09/22 05:15:58;;;;;;;16.23;13.93;;;;;;;10.95;95.05;99575.91;5042548;28;20037;-69
2022/09/22 05:18:23;;;;;;;15.63;13.90;;;;;;;10.93;94.97;99575.13;5043190;28;20039;-70
2022/09/22 05:20:49;;;;;;;15.15;12.63;;;;;;;11.04;94.55;99575.72;5042714;28;20037;-70
2022/09/22 05:23:14;;;;;;;16.20;13.13;;;;;;;11.01;94.37;99580.94;5042643;28;20041;-70
2022/09/22 05:25:41;;;;;;;15.75;13.55;;;;;;;10.91;95.02;99571.69;5058549;28;20037;-69
2022/09/22 05:28:06;;;;;;;16.65;13.90;;;;;;;10.76;95.51;99578.13;5042909;28;20048;-69
2022/09/22 05:30:33;;;;;;;17.05;14.52;;;;;;;10.85;95.14;99577.03;5042289;28;20337;-70
2022/09/22 05:32:58;;;;;;;18.17;14.45;;;;;;;10.77;96.11;99572.03;5042463;28;20263;-70
2022/09/22 05:35:25;;;;;;;16.08;14.23;;;;;;;10.77;95.55;99568.59;5042621;28;20053;-67
2022/09/22 05:37:51;;;;;;;17.92;14.82;;;;;;;10.75;95.35;99571.22;5042627;28;20052;-67
2022/09/22 05:40:18;;;;;;;18.17;14.65;;;;;;;10.64;96.15;99566.28;5041641;28;20072;-68
2022/09/22 05:42:46;;;;;;;17.40;14.60;;;;;;;10.69;95.93;99569.63;5042123;28;20427;-66
2022/09/22 05:45:12;;;;;;;15.30;13.52;;;;;;;10.91;95.42;99573.44;5054783;28;20037;-67
2022/09/22 05:47:38;;;;;;;16.67;14.02;;;;;;;10.83;95.55;99571.03;5031006;28;20029;-68
2022/09/22 05:50:06;;;;;;;14.82;13.13;;;;;;;10.86;94.77;99581.34;5042612;28;20029;-67
2022/09/22 05:52:32;;;;;;;18.83;14.45;;;;;;;10.96;95.33;99581.94;5042414;28;20057;-67
2022/09/22 05:54:58;;;;;;;15.23;13.63;;;;;;;10.98;94.33;99583.63;5041607;28;20033;-67
2022/09/22 05:57:26;;;;;;;14.65;13.15;;;;;;;11.09;93.72;99577.31;5042581;28;20033;-67
2022/09/22 05:59:53;;;;;;;13.45;12.02;;;;;;;11.30;93.67;99579.38;5042181;28;20029;-68
2022/09/22 06:02:20;;;;;;;15.02;13.50;;;;;;;11.42;94.21;99577.34;5042630;28;20108;-67
2022/09/22 06:04:45;;;;;;;15.02;13.20;;;;;;;11.20;92.46;99573.56;5042187;28;20081;-67
2022/09/22 06:07:11;;;;;;;15.45;12.88;;;;;;;11.14;93.07;99578.88;5042308;28;20037;-67
2022/09/22 06:09:37;;;;;;;15.35;13.48;;;;;;;11.24;93.37;99571.72;5042011;28;20055;-67
2022/09/22 06:12:02;;;;;;;16.15;13.45;;;;;;;11.25;92.00;99576.03;5042194;28;20124;-67
2022/09/22 06:14:28;;;;;;;14.52;13.05;;;;;;;11.13;92.53;99564.25;5041873;28;20049;-68
2022/09/22 06:16:54;;;;;;;13.90;12.52;;;;;;;11.18;92.08;99577.91;5046034;28;20037;-67
2022/09/22 06:19:22;;;;;;;14.57;13.15;;;;;;;11.28;91.40;99569.94;5046559;28;20332;-68
2022/09/22 06:21:49;;;;;;;14.88;12.80;;;;;;;11.44;91.00;99572.97;5046125;28;20033;-67
2022/09/22 06:24:15;;;;;;;13.80;12.20;;;;;;;11.48;91.66;99566.78;5046309;28;20072;-68
2022/09/22 06:26:40;;;;;;;13.27;11.63;;;;;;;11.37;91.45;99569.66;5046455;28;20099;-67
2022/09/22 06:29:07;;;;;;;14.50;12.98;;;;;;;11.40;91.16;99569.56;5046002;28;20317;-68
2022/09/22 06:31:32;;;;;;;14.35;12.85;;;;;;;11.43;91.85;99579.03;5046054;28;20229;-67
2022/09/22 06:33:58;;;;;;;15.25;13.30;;;;;;;11.35;91.56;99581.84;5045924;28;20033;-68
2022/09/22 06:36:30;;;;;;;15.60;12.77;;;;;;;11.51;92.35;99579.69;5045638;28;20032;-68
2022/09/22 06:38:59;;;;;;;;;;;;;;;11.54;90.94;99583.06;5046015;28;20030;-67
2022/09/22 06:41:30;;;;;;;16.40;12.80;;;;;;;11.48;90.75;99551.25;5045872;28;20007;-68
2022/09/22 06:43:55;;;;;;;19.50;16.58;;;;;;;11.44;91.65;99578.13;5045748;28;20376;-69
2022/09/22 06:46:24;;;;;;;19.48;16.17;;;;;;;11.30;91.82;99563.81;5042964;28;20025;-68
2022/09/22 06:48:50;;;;;;;22.58;15.93;;;;;;;11.49;92.20;99579.72;5045666;28;20121;-68
2022/09/22 06:51:16;;;;;;;18.25;16.40;;;;;;;11.43;92.47;99584.22;5045588;28;20037;-68
2022/09/22 06:53:43;;;;;;;17.88;15.88;;;;;;;11.40;92.27;99583.41;5045693;28;20048;-68
2022/09/22 06:56:09;;;;;;;18.75;15.48;;;;;;;11.38;92.16;99584.34;5045861;28;20075;-67
2022/09/22 06:58:34;;;;;;;17.50;14.32;;;;;;;11.42;92.72;99583.38;5044789;28;20033;-67
2022/09/22 07:01:06;;;;;;;17.75;15.73;;;;;;;11.54;91.73;99577.88;5045441;28;20104;-68
2022/09/22 07:03:35;;;;;;;19.35;15.05;;;;;;;11.68;91.86;99587.00;5045615;28;20290;-68
2022/09/22 07:06:01;;;;;;;18.00;15.10;;;;;;;11.46;92.17;99587.59;5043905;28;20343;-68
2022/09/22 07:08:33;;;;;;;16.63;14.50;;;;;;;11.26;92.90;99566.50;5040515;28;20033;-68
2022/09/22 07:11:06;;;;;;;21.42;14.57;;;;;;;11.38;93.35;99587.78;5040073;28;20061;-68
2022/09/22 07:13:37;;;;;;;16.50;14.70;;;;;;;11.22;93.34;99566.59;5040672;28;20244;-69
2022/09/22 07:16:11;;;;;;;16.77;14.60;;;;;;;11.42;93.20;99580.78;5036053;28;20221;-68
2022/09/22 07:18:45;;;;;;;17.50;15.02;;;;;;;11.48;93.37;99580.59;5041543;28;20313;-69
2022/09/22 07:21:18;;;;;;;17.80;15.25;;;;;;;11.28;93.40;99577.69;5039725;28;20096;-69
2022/09/22 07:23:44;;;;;;;19.13;14.52;;;;;;;11.24;94.00;99587.28;5043511;28;20209;-69
2022/09/22 07:26:13;;;;;;;15.43;13.18;;;;;;;11.10;94.18;99579.88;5044126;28;20100;-69
2022/09/22 07:28:39;;;;;;;15.63;13.75;;;;;;;11.13;94.15;99594.47;5044358;28;20332;-70
2022/09/22 07:31:11;;;;;;;14.90;13.40;;;;;;;11.14;94.26;99586.66;5044351;28;20079;-69
2022/09/22 07:33:39;;;;;;;15.63;13.90;;;;;;;11.04;93.75;99588.66;5044079;28;20075;-69
2022/09/22 07:36:13;;;;;;;14.52;12.80;;;;;;;11.08;94.18;99606.72;5044569;28;20040;-69
2022/09/22 07:38:44;;;;;;;13.82;12.32;;;;;;;11.25;93.59;99606.31;5044146;28;20041;-68
2022/09/22 07:41:17;;;;;;;16.80;13.23;;;;;;;11.12;93.86;99591.06;5044614;28;20067;-68
2022/09/22 07:43:43;;;;;;;15.27;13.02;;;;;;;11.27;93.34;99607.94;5044376;28;20037;-68
2022/09/22 07:46:11;;;;;;;15.90;13.27;;;;;;;11.31;93.92;99606.13;5044746;28;20044;-68
2022/09/22 07:48:37;;;;;;;15.63;12.90;;;;;;;11.24;93.65;99610.63;5044899;28;20038;-69
2022/09/22 07:51:09;;;;;;;14.93;13.38;;;;;;;11.18;94.19;99610.78;5044061;28;20037;-68
2022/09/22 07:53:36;;;;;;;15.35;13.60;;;;;;;11.34;94.44;99608.66;5044247;28;20089;-68
2022/09/22 07:56:10;;;;;;;15.43;13.18;;;;;;;11.38;93.62;99598.16;5044500;28;20067;-69
2022/09/22 07:58:35;;;;;;;14.70;12.98;;;;;;;11.45;93.63;99609.22;5043838;28;20037;-68
2022/09/22 08:01:06;;;;;;;13.93;12.13;;;;;;;11.04;94.50;99612.00;5044101;28;20034;-68
2022/09/22 08:03:31;;;;;;;15.32;12.52;;;;;;;11.32;94.61;99607.84;5026775;28;20048;-68
2022/09/22 08:06:09;;;;;;;13.93;12.30;;;;;;;11.29;93.75;99608.78;5044258;28;20317;-68
2022/09/22 08:08:40;;;;;;;13.68;12.27;;;;;;;11.41;93.59;99612.78;5044072;28;20040;-68
2022/09/22 08:11:12;;;;;;;12.73;11.43;;;;;;;11.48;92.46;99600.50;5041504;28;20036;-68
2022/09/22 08:13:43;;;;;;;13.98;11.93;;;;;;;11.42;92.26;99619.69;5024214;28;20113;-68
2022/09/22 08:16:10;;;;;;;12.60;11.20;;;;;;;11.26;92.75;99613.16;5043172;28;20325;-69
2022/09/22 08:18:38;;;;;;;11.90;10.65;;;;;;;11.34;92.25;99613.81;5041968;28;20040;-68
2022/09/22 08:21:04;;;;;;;12.15;10.85;;;;;;;11.28;92.08;99611.41;5039272;28;20033;-67
2022/09/22 08:23:30;;;;;;;10.77;9.75;;;;;;;11.42;91.48;99608.47;5035536;28;20179;-67
2022/09/22 08:26:03;;;;;;;10.50;9.40;;;;;;;11.46;90.78;99607.47;5043282;28;20044;-69
2022/09/22 08:28:29;;;;;;;10.27;9.30;;;;;;;11.46;90.85;99610.94;5040984;28;20039;-68
2022/09/22 08:30:54;;;;;;;10.35;9.35;;;;;;;11.58;90.88;99609.75;5025188;28;20061;-68
2022/09/22 08:33:20;;;;;;;10.55;9.30;;;;;;;11.70;90.33;99611.16;5035200;28;20021;-67
2022/09/22 08:35:57;;;;;;;10.18;9.27;;;;;;;11.68;89.51;99595.63;5038618;28;20028;-67
2022/09/22 08:38:24;;;;;;;9.90;9.00;;;;;;;11.85;89.54;99613.31;5040359;28;20057;-67
2022/09/22 08:41:14;;;;;;;11.57;9.80;;;;;;;11.41;89.99;99607.59;5043842;28;20041;-67
2022/09/22 08:43:54;;;;;;;11.38;10.23;;;;;;;11.43;91.07;99587.69;5042829;28;20037;-68
2022/09/22 08:46:45;;;;;;;13.93;10.77;;;;;;;11.57;90.37;99598.53;5038068;28;20064;-67
2022/09/22 08:52:27;;;;;;;13.30;11.90;;;;;;;11.74;90.31;99597.19;5043401;28;20037;-67
2022/09/22 08:54:58;;;;;;;12.30;11.18;;;;;;;11.71;89.46;99605.94;5043754;28;20033;-67
2022/09/22 08:58:02;;;;;;;12.85;11.40;;;;;;;11.68;90.21;99610.34;5042890;28;20036;-67
2022/09/22 09:00:57;;;;;;;12.40;11.20;;;;;;;11.91;90.17;99605.38;5037962;28;20029;-68
2022/09/22 09:03:41;;;;;;;12.50;11.30;;;;;;;11.70;88.61;99609.41;5055128;28;20060;-68
2022/09/22 09:06:25;;;;;;;13.00;11.52;;;;;;;11.66;89.17;99592.22;5033720;28;20136;-67
2022/09/22 09:09:05;;;;;;;12.45;11.15;;;;;;;11.71;89.12;99613.72;5042873;28;20033;-67
2022/09/22 09:12:04;;;;;;;11.98;10.80;;;;;;;11.80;88.95;99602.25;5042516;28;20029;-68
2022/09/22 09:14:45;;;;;;;13.20;11.30;;;;;;;11.69;89.80;99620.69;5042919;28;20043;-67
2022/09/22 09:17:19;;;;;;;13.48;12.00;;;;;;;11.78;89.37;99604.00;5039819;28;20353;-67
2022/09/22 09:19:54;;;;;;;11.73;10.63;;;;;;;11.87;88.88;99600.28;5022879;28;20029;-67
2022/09/22 09:22:24;;;;;;;11.05;10.00;;;;;;;12.05;88.17;99614.53;5023577;28;20068;-67
2022/09/22 09:25:21;;;;;;;11.05;9.93;;;;;;;11.98;88.13;99610.41;5038570;28;20021;-67
2022/09/22 09:27:53;;;;;;;12.25;10.95;;;;;;;11.85;88.06;99612.47;5042556;28;20064;-68
2022/09/22 09:30:20;;;;;;;11.85;9.82;;;;;;;11.78;88.70;99626.50;5042937;28;20033;-67
2022/09/22 09:32:59;;;;;;;13.18;10.82;;;;;;;11.78;88.78;99616.97;5041874;28;20041;-67
2022/09/22 09:35:43;;;;;;;11.02;9.90;;;;;;;11.73;88.92;99617.13;5042551;28;20092;-67
2022/09/22 09:38:15;;;;;;;10.90;9.80;;;;;;;11.94;88.51;99607.03;5042722;28;20029;-67
2022/09/22 09:40:43;;;;;;;9.60;8.38;;;;;;;12.01;86.73;99623.31;5022081;28;20101;-67
2022/09/22 09:43:09;;;;;;;9.48;8.57;;;;;;;11.97;86.15;99606.13;5041258;28;20108;-68
2022/09/22 09:46:11;;;;;;;10.55;9.65;;;;;;;11.92;86.06;99620.03;5042586;28;20075;-68
2022/09/22 09:48:48;;;;;;;10.40;9.40;;;;;;;12.06;85.86;99617.09;5028125;28;20034;-67
2022/09/22 09:51:14;;;;;;;11.00;9.90;;;;;;;12.03;86.51;99617.19;5033856;28;20093;-67
2022/09/22 09:53:45;;;;;;;9.50;8.60;;;;;;;12.01;86.14;99615.53;5042086;28;20048;-67
2022/09/22 09:56:13;;;;;;;10.67;9.63;;;;;;;12.09;86.55;99613.56;5042533;28;20041;-67
2022/09/22 10:01:41;;;;;;;10.50;9.52;;;;;;;12.32;85.79;99612.03;5022499;28;20046;-66
2022/09/22 10:04:27;;;;;;;10.35;9.35;;;;;;;12.40;86.32;99608.31;5040724;28;20098;-67
2022/09/22 10:07:13;;;;;;;10.48;9.38;;;;;;;12.35;85.64;99619.72;5042285;28;20213;-67
2022/09/22 10:09:40;;;;;;;10.70;9.80;;;;;;;12.41;86.85;99617.81;5042258;28;20029;-68
2022/09/22 10:12:19;;;;;;;10.63;9.63;;;;;;;12.40;84.93;99620.47;5041986;28;20047;-68
2022/09/22 10:14:50;;;;;;;10.70;9.70;;;;;;;12.32;85.03;99601.66;5040829;28;20042;-67
2022/09/22 10:17:21;;;;;;;10.23;9.15;;;;;;;12.20;83.42;99608.91;5040084;28;20088;-67
2022/09/22 10:19:46;;;;;;;9.93;8.93;;;;;;;12.45;83.79;99602.97;5033567;28;20098;-67
2022/09/22 10:22:23;;;;;;;9.05;8.13;;;;;;;12.23;83.67;99597.59;5037472;28;20026;-68
2022/09/22 10:24:56;;;;;;;8.95;8.15;;;;;;;12.41;82.40;99585.78;5034581;28;20057;-67
2022/09/22 10:27:23;;;;;;;9.07;8.18;;;;;;;12.59;82.90;99597.34;5032781;28;20023;-68
2022/09/22 10:30:20;;;;;;;9.77;8.75;;;;;;;12.57;83.13;99594.81;5031140;28;20040;-68
2022/09/22 10:35:27;;;;;;;8.13;7.32;;;;;;;12.69;83.71;99580.56;5241753;23;20049;-65
2022/09/22 10:38:01;;;;;;;9.27;8.27;;;;;;;12.71;82.72;99593.50;5025237;28;20034;-67
2022/09/22 10:40:30;;;;;;;8.48;7.68;;;;;;;12.88;82.48;99591.25;5037394;28;20136;-66
2022/09/22 10:42:58;;;;;;;9.18;8.02;;;;;;;12.82;82.59;99573.22;5011187;28;20066;-66
2022/09/22 10:45:41;;;;;;;8.68;7.88;;;;;;;12.83;82.27;99602.69;5000723;28;20054;-66
2022/09/22 10:48:39;;;;;;;9.07;8.18;;;;;;;12.83;81.95;99574.94;5002661;28;20101;-64
2022/09/22 10:51:19;;;;;;;8.07;7.07;;;;;;;12.71;82.55;99586.59;5000066;28;20070;-67
2022/09/22 10:54:29;;;;;;;7.82;6.55;;;;;;;12.82;83.08;99596.63;5208809;23;20240;-67
2022/09/22 10:56:58;;;;;;;7.15;5.90;;;;;;;12.71;81.57;99571.00;4947033;28;20357;-67
2022/09/22 10:59:32;;;;;;;7.38;6.38;;;;;;;12.95;81.42;99595.34;4982876;28;20098;-66
2022/09/22 11:02:04;;;;;;;8.55;6.40;;;;;;;13.10;82.24;99591.38;4984989;28;20226;-66
2022/09/22 11:04:59;;;;;;;7.10;6.50;;;;;;;13.17;81.33;99594.63;4983910;28;20122;-66
2022/09/22 11:13:48;;;;;;;6.78;6.15;;;;;;;13.02;81.29;99576.94;4967223;29;20027;-66
2022/09/22 11:16:36;;;;;;;6.70;5.78;;;;;;;13.02;80.42;99572.56;4984655;28;20041;-66
2022/09/22 11:19:04;;;;;;;6.40;5.80;;;;;;;12.95;81.21;99574.53;4986353;28;20043;-67
2022/09/22 11:22:04;;;;;;;9.30;6.00;;;;;;;13.10;80.00;99575.78;4985151;28;20245;-67
2022/09/22 11:25:06;;;;;;;7.10;6.38;;;;;;;13.13;80.51;99575.66;4986026;28;20035;-66
2022/09/22 11:27:50;;;;;;;7.43;6.72;;;;;;;13.13;80.22;99583.47;4986229;28;20061;-67
2022/09/22 11:30:21;;;;;;;6.78;5.95;;;;;;;13.09;79.90;99570.63;4985351;28;20035;-67
2022/09/22 11:33:01;;;;;;;6.00;5.50;;;;;;;13.35;79.98;99569.75;4974554;28;20033;-67
2022/09/22 11:35:51;;;;;;;6.80;6.18;;;;;;;13.22;78.65;99571.06;4977392;28;20027;-67
2022/09/22 11:38:16;;;;;;;8.43;6.10;;;;;;;13.37;79.93;99578.38;4973672;28;20400;-67
2022/09/22 11:40:59;;;;;;;7.28;5.80;;;;;;;13.40;78.94;99556.59;4976322;28;20106;-67
2022/09/22 11:43:49;;;;;;;6.15;5.55;;;;;;;13.41;78.41;99563.50;4975576;28;20070;-67
2022/09/22 11:46:28;;;;;;;6.68;5.95;;;;;;;13.42;78.34;99552.19;4976592;28;20069;-67
2022/09/22 11:48:56;;;;;;;5.95;5.45;;;;;;;13.57;79.03;99559.44;4972548;28;20034;-67
2022/09/22 11:51:56;;;;;;;7.63;5.95;;;;;;;13.54;78.55;99559.56;4975042;28;20050;-67
2022/09/22 11:54:48;;;;;;;5.95;5.35;;;;;;;13.57;78.62;99553.41;4983127;28;20046;-67
2022/09/22 11:57:18;;;;;;;7.15;5.82;;;;;;;13.61;79.37;99548.03;5004718;28;20114;-66
2022/09/22 12:00:01;;;;;;;6.38;5.78;;;;;;;13.70;79.19;99539.03;5004781;28;20061;-66
2022/09/22 12:02:53;;;;;;;6.03;5.43;;;;;;;13.52;77.08;99545.75;5004347;28;20026;-66